Terminal Aerodrome Forecast
Issued by NWS

Home | Current Version | Previous Version | Text Only | Print | Product List | Glossary Off
Versions: 1 2 3 4 5 6 7 8 9 10 11 12 13 14 15 16 17 18 19 20 21 22

000
FTUS43 KLOT 201455 AAC
TAFGYY
TAF AMD
KGYY 201455Z 2015/2112 15012KT P6SM FEW250
     FM201800 18014G21KT P6SM SCT060 SCT250
     FM210100 20006KT P6SM BKN200 PROB30 2106/2109 -SHRA BKN050=

USA.gov is the U.S. government's official web portal to all federal, state and local government web resources and services.